BHM weather

Birmingham-Shuttlesworth International Airport
Birmingham, Alabama, United States

Public forecast

Using degrees Fahrenheit for public forecast. Weather courtesy of forecast.io.

METAR (pilot weather report)

Retrieved 2017/12/16 01:53 UTC (20 minutes ago):

KBHM 160153Z 00000KT 10SM FEW150 SCT250 M02/M04 A3024 RMK AO2 SLP246 T10171044

TAF (pilot weather forecast)

Forecast is more than 12 hours old.

Retrieved 2017/12/15 00:27 UTC (1 day ago):

TAF KBHM 152325Z 1600/1624 31002KT P6SM SCT150 OVC250 FM161600 20004KT P6SM OVC250